Time;durP1;ratioP1;P1;durP2;ratioP2;P2;SDS_P1;SDS_P2;PMS_P1;PMS_P2;Temp;Humidity;BMP_temperature;BMP_pressure;BME280_temperature;BME280_humidity;BME280_pressure;Samples;Min_cycle;Max_cycle;Signal;HPM_P1;HPM_P2
2022/07/16 00:01:41;;;;;;;4.57;2.50;;;;;;;15.45;100.00;96156.94;1035708;28;20034;-71
2022/07/16 00:02:11;;;;;;;4.28;2.40;;;;;;;15.42;100.00;96159.38;1039112;28;20025;-72
2022/07/16 00:02:42;;;;;;;3.63;2.35;;;;;;;15.40;100.00;96161.53;1038959;28;20029;-71
2022/07/16 00:03:12;;;;;;;6.65;2.33;;;;;;;15.40;100.00;96156.22;1037522;28;20026;-72
2022/07/16 00:03:43;;;;;;;3.50;2.28;;;;;;;15.35;100.00;96158.91;1038493;28;20025;-73
2022/07/16 00:04:13;;;;;;;2.00;1.80;;;;;;;15.35;100.00;96156.28;1030975;28;20487;-71
2022/07/16 00:04:44;;;;;;;5.32;2.22;;;;;;;15.31;100.00;96156.84;1031036;28;20054;-71
2022/07/16 00:05:14;;;;;;;3.55;2.30;;;;;;;15.30;100.00;96155.28;1030827;28;20097;-72
2022/07/16 00:05:45;;;;;;;5.13;2.20;;;;;;;15.29;100.00;96166.94;1031025;28;20046;-71
2022/07/16 00:06:16;;;;;;;5.40;2.28;;;;;;;15.28;100.00;96154.75;1030920;28;20058;-72
2022/07/16 00:06:46;;;;;;;5.57;2.20;;;;;;;15.28;100.00;96153.97;1030862;28;20078;-73
2022/07/16 00:07:19;;;;;;;3.63;2.05;;;;;;;15.26;100.00;96153.47;1031041;28;20026;-72
2022/07/16 00:07:49;;;;;;;4.60;2.40;;;;;;;15.20;100.00;96144.81;1035763;28;20026;-71
2022/07/16 00:08:19;;;;;;;6.38;2.60;;;;;;;15.24;100.00;96159.03;1034941;28;20030;-73
2022/07/16 00:08:51;;;;;;;6.10;2.22;;;;;;;15.18;100.00;96152.22;1034840;28;20076;-71
2022/07/16 00:09:21;;;;;;;5.82;2.67;;;;;;;15.18;100.00;96154.88;1031472;28;20010;-71
2022/07/16 00:09:52;;;;;;;4.63;2.60;;;;;;;15.17;100.00;96157.81;1023066;28;20027;-72
2022/07/16 00:10:22;;;;;;;4.60;2.55;;;;;;;15.16;100.00;96159.66;1027034;28;20392;-71
2022/07/16 00:10:52;;;;;;;9.65;2.40;;;;;;;15.15;100.00;96152.00;1026937;28;20026;-72
2022/07/16 00:11:23;;;;;;;4.65;2.38;;;;;;;15.14;100.00;96153.88;1030547;28;20027;-72
2022/07/16 00:11:53;;;;;;;4.97;2.40;;;;;;;15.14;100.00;96158.38;1035083;28;20026;-71
2022/07/16 00:12:25;;;;;;;5.45;2.33;;;;;;;15.08;100.00;96149.69;1035049;28;20065;-71
2022/07/16 00:12:55;;;;;;;9.25;2.20;;;;;;;15.14;100.00;96161.78;1035003;28;20119;-71
2022/07/16 00:13:26;;;;;;;4.03;2.38;;;;;;;15.15;100.00;96155.44;1033229;28;20026;-72
2022/07/16 00:13:56;;;;;;;3.72;2.03;;;;;;;15.15;100.00;96158.06;1030770;28;20478;-71
2022/07/16 00:14:27;;;;;;;5.65;2.17;;;;;;;15.15;100.00;96160.72;1031018;28;20053;-71
2022/07/16 00:14:57;;;;;;;4.10;2.33;;;;;;;15.11;100.00;96154.44;1030828;28;20461;-72
2022/07/16 00:15:29;;;;;;;3.70;2.30;;;;;;;15.11;100.00;96156.28;1030874;28;20061;-72
2022/07/16 00:15:59;;;;;;;2.83;2.20;;;;;;;14.89;100.00;96125.06;1034991;28;20554;-71
2022/07/16 00:16:30;;;;;;;4.30;1.98;;;;;;;15.07;100.00;96153.41;1037262;28;20041;-71
2022/07/16 00:17:00;;;;;;;5.40;2.70;;;;;;;15.04;100.00;96154.75;1035278;28;20441;-70
2022/07/16 00:17:31;;;;;;;4.65;2.63;;;;;;;14.99;100.00;96152.19;1034873;28;20057;-72
2022/07/16 00:19:39;;;;;;;5.03;2.28;;;;;;;14.88;100.00;96155.19;1038710;28;20475;-72
2022/07/16 00:20:10;;;;;;;5.30;2.50;;;;;;;14.85;100.00;96151.25;1040052;28;20064;-72
2022/07/16 00:20:41;;;;;;;4.68;2.55;;;;;;;14.79;100.00;96158.44;1034897;28;20030;-72
2022/07/16 00:21:11;;;;;;;7.18;2.30;;;;;;;14.75;100.00;96148.69;1037070;28;20034;-71
2022/07/16 00:21:43;;;;;;;4.20;2.40;;;;;;;14.70;100.00;96146.91;1034527;28;20025;-72
2022/07/16 00:22:14;;;;;;;3.63;2.38;;;;;;;14.73;100.00;96158.78;1027508;28;20022;-71
2022/07/16 00:22:44;;;;;;;3.65;2.40;;;;;;;14.73;100.00;96151.63;1030862;28;20262;-71
2022/07/16 00:23:14;;;;;;;7.00;2.58;;;;;;;14.71;100.00;96152.97;1031042;28;20573;-70
2022/07/16 00:23:45;;;;;;;7.90;2.78;;;;;;;14.68;100.00;96151.66;1030839;28;20031;-72
2022/07/16 00:24:16;;;;;;;6.32;2.65;;;;;;;14.66;100.00;96153.81;1036475;28;20037;-71
2022/07/16 00:24:46;;;;;;;4.47;2.40;;;;;;;14.63;100.00;96148.31;1037115;28;20029;-72
2022/07/16 00:25:16;;;;;;;7.78;2.60;;;;;;;14.55;100.00;96141.75;1037327;28;20080;-71
2022/07/16 00:25:47;;;;;;;5.80;2.30;;;;;;;14.60;100.00;96157.56;1031786;28;20034;-72
2022/07/16 00:26:18;;;;;;;6.57;2.15;;;;;;;14.57;100.00;96150.19;1031040;28;20030;-72
2022/07/16 00:26:48;;;;;;;5.03;2.50;;;;;;;14.54;100.00;96145.47;1027671;28;20050;-71
2022/07/16 00:27:19;;;;;;;3.88;2.30;;;;;;;14.56;100.00;96148.63;1024000;28;20070;-71
2022/07/16 00:27:49;;;;;;;3.45;2.35;;;;;;;14.53;100.00;96154.47;1026267;28;20062;-71
2022/07/16 00:28:20;;;;;;;3.60;1.88;;;;;;;14.53;100.00;96151.81;1025154;28;20577;-72
2022/07/16 00:28:50;;;;;;;5.28;1.95;;;;;;;14.51;100.00;96151.28;1027269;28;20054;-73
2022/07/16 00:29:21;;;;;;;4.20;2.30;;;;;;;14.47;100.00;96155.53;1030700;28;20084;-71
2022/07/16 00:29:51;;;;;;;3.50;2.40;;;;;;;14.46;100.00;96149.47;1030165;28;20065;-70
2022/07/16 00:30:21;;;;;;;8.95;2.67;;;;;;;14.45;100.00;96152.38;1022800;28;20137;-71
2022/07/16 00:30:52;;;;;;;4.15;3.08;;;;;;;14.43;100.00;96143.94;1030709;28;20037;-71
2022/07/16 00:31:22;;;;;;;2.90;2.10;;;;;;;14.41;100.00;96151.34;1026245;28;20034;-72
2022/07/16 00:31:54;;;;;;;5.50;2.65;;;;;;;14.38;100.00;96148.22;1026890;28;20030;-74
2022/07/16 00:32:24;;;;;;;3.97;2.30;;;;;;;14.28;100.00;96137.69;1034762;28;20034;-71
2022/07/16 00:32:55;;;;;;;5.10;2.35;;;;;;;14.37;100.00;96146.63;1030847;28;20125;-71
2022/07/16 00:33:25;;;;;;;4.22;2.40;;;;;;;14.34;100.00;96141.88;1027255;28;20043;-71
2022/07/16 00:33:56;;;;;;;6.38;2.30;;;;;;;14.27;100.00;96138.78;1030729;28;20034;-71
2022/07/16 00:34:26;;;;;;;3.83;2.55;;;;;;;14.34;100.00;96143.75;1027064;28;20031;-73
2022/07/16 00:34:57;;;;;;;8.68;2.58;;;;;;;14.32;100.00;96148.53;1030725;28;20096;-72
2022/07/16 00:35:27;;;;;;;4.72;2.22;;;;;;;14.30;100.00;96148.78;1034889;28;20485;-72
2022/07/16 00:35:58;;;;;;;8.20;2.88;;;;;;;14.28;100.00;96152.75;1035016;28;20029;-73
2022/07/16 00:36:28;;;;;;;3.05;2.38;;;;;;;14.25;100.00;96148.84;1034829;28;20084;-73
2022/07/16 00:36:59;;;;;;;6.97;3.22;;;;;;;14.25;100.00;96145.38;1040745;28;20029;-72
2022/07/16 00:37:30;;;;;;;3.42;2.35;;;;;;;14.23;100.00;96147.53;1042714;28;20037;-72
2022/07/16 00:38:00;;;;;;;5.03;2.45;;;;;;;14.22;100.00;96146.75;1035011;28;20419;-73
2022/07/16 00:38:31;;;;;;;5.18;2.70;;;;;;;14.19;100.00;96144.66;1038763;28;20025;-72
2022/07/16 00:39:03;;;;;;;4.70;2.58;;;;;;;14.19;100.00;96143.88;1025351;28;20030;-72
2022/07/16 00:39:33;;;;;;;6.93;3.08;;;;;;;14.18;100.00;96143.06;1026531;28;20074;-73
2022/07/16 00:40:05;;;;;;;7.75;2.63;;;;;;;14.17;100.00;96146.78;1021968;28;20412;-72
2022/07/16 00:40:35;;;;;;;4.53;2.30;;;;;;;14.14;100.00;96140.19;1020168;28;20519;-73
2022/07/16 00:41:06;;;;;;;3.55;2.30;;;;;;;14.07;100.00;96125.72;1025588;28;20026;-72
2022/07/16 00:41:37;;;;;;;5.63;2.47;;;;;;;14.13;100.00;96140.47;1026816;28;20483;-72
2022/07/16 00:42:07;;;;;;;5.57;2.20;;;;;;;14.12;100.00;96149.47;1030110;28;20037;-72
2022/07/16 00:42:38;;;;;;;3.70;2.60;;;;;;;14.10;100.00;96144.44;1030920;28;20517;-75
2022/07/16 00:43:11;;;;;;;8.77;2.55;;;;;;;14.10;100.00;96143.66;1033570;28;20409;-72
2022/07/16 00:43:46;;;;;;;6.70;2.70;;;;;;;14.09;100.00;96150.00;1034804;28;20038;-73
2022/07/16 00:44:18;;;;;;;4.40;3.05;;;;;;;14.09;100.00;96145.50;1029856;28;20022;-72
2022/07/16 00:44:48;;;;;;;3.83;1.98;;;;;;;14.08;100.00;96149.22;1031769;28;20037;-72
2022/07/16 00:45:19;;;;;;;4.55;2.38;;;;;;;14.07;100.00;96150.25;1034785;28;20084;-72
2022/07/16 00:45:49;;;;;;;7.07;2.55;;;;;;;14.08;100.00;96148.41;1031316;28;20030;-72
2022/07/16 00:46:19;;;;;;;5.47;2.78;;;;;;;14.08;100.00;96145.78;1034764;28;20072;-72
2022/07/16 00:46:50;;;;;;;7.20;2.58;;;;;;;14.05;100.00;96143.69;1037583;28;20502;-72
2022/07/16 00:47:21;;;;;;;6.70;2.58;;;;;;;14.07;100.00;96149.47;1030973;28;20034;-72
2022/07/16 00:47:51;;;;;;;7.75;2.58;;;;;;;14.01;100.00;96137.38;1034963;28;20026;-71
2022/07/16 00:48:21;;;;;;;4.68;2.60;;;;;;;14.04;100.00;96142.91;1031003;28;20041;-71
2022/07/16 00:48:52;;;;;;;8.32;2.90;;;;;;;14.05;100.00;96143.69;1026728;28;20039;-73
2022/07/16 00:49:22;;;;;;;5.25;2.58;;;;;;;14.07;100.00;96141.56;1026721;28;20386;-72
2022/07/16 00:49:53;;;;;;;5.70;2.50;;;;;;;14.07;100.00;96141.56;1022499;29;20024;-75
2022/07/16 00:50:23;;;;;;;5.15;2.40;;;;;;;14.07;100.00;96146.84;1025262;28;20035;-72
2022/07/16 00:50:54;;;;;;;6.68;2.40;;;;;;;14.08;100.00;96146.59;1034670;28;20022;-72
2022/07/16 00:51:25;;;;;;;4.28;2.22;;;;;;;14.07;100.00;96141.56;1030293;28;20339;-72
2022/07/16 00:51:55;;;;;;;4.60;2.35;;;;;;;14.09;100.00;96139.44;1030849;28;20026;-72
2022/07/16 00:52:26;;;;;;;5.35;2.72;;;;;;;14.08;100.00;96145.78;1031051;28;20031;-72
2022/07/16 00:52:58;;;;;;;4.88;2.47;;;;;;;13.99;100.00;96135.03;1030150;28;20146;-72
2022/07/16 00:53:29;;;;;;;7.57;2.72;;;;;;;14.07;100.00;96142.34;1026550;28;20023;-74
2022/07/16 00:53:59;;;;;;;4.63;2.45;;;;;;;14.05;100.00;96144.50;1024054;28;20046;-71
2022/07/16 00:54:30;;;;;;;3.47;2.45;;;;;;;13.98;100.00;96130.78;1026660;28;20129;-72
2022/07/16 00:55:00;;;;;;;4.55;2.30;;;;;;;14.05;100.00;96135.75;1023951;28;20075;-72
2022/07/16 00:55:31;;;;;;;6.50;2.42;;;;;;;14.05;100.00;96146.31;1026988;28;20512;-72
2022/07/16 00:56:02;;;;;;;3.38;2.33;;;;;;;14.05;100.00;96141.03;1030814;28;20065;-72
2022/07/16 00:56:32;;;;;;;7.35;3.15;;;;;;;14.07;100.00;96147.63;1027111;28;20624;-71
2022/07/16 00:57:03;;;;;;;6.47;3.30;;;;;;;13.91;100.00;96117.91;1030608;28;20068;-73
2022/07/16 00:57:33;;;;;;;6.50;3.20;;;;;;;14.04;100.00;96142.09;1031046;28;20402;-71
2022/07/16 00:58:04;;;;;;;7.25;2.50;;;;;;;14.04;100.00;96139.47;1031070;28;20069;-72
2022/07/16 00:58:36;;;;;;;10.65;2.63;;;;;;;14.07;100.00;96144.19;1032667;28;20129;-72
2022/07/16 00:59:07;;;;;;;7.30;2.90;;;;;;;14.10;100.00;96146.28;1037876;28;20049;-72
2022/07/16 00:59:37;;;;;;;9.98;2.78;;;;;;;14.11;100.00;96150.50;1034982;28;20034;-73
2022/07/16 01:00:08;;;;;;;8.10;2.67;;;;;;;14.13;100.00;96140.47;1034824;28;20416;-72
2022/07/16 01:00:38;;;;;;;11.05;3.45;;;;;;;14.14;100.00;96142.81;1032715;28;20033;-71
2022/07/16 01:01:09;;;;;;;15.07;3.60;;;;;;;14.16;100.00;96145.19;1038126;28;20021;-72
2022/07/16 01:01:40;;;;;;;10.13;3.35;;;;;;;14.13;100.00;96135.97;1030421;28;20030;-73
2022/07/16 01:02:10;;;;;;;10.90;3.13;;;;;;;14.18;100.00;96147.56;1026828;28;20423;-72
2022/07/16 01:02:40;;;;;;;7.88;2.70;;;;;;;14.19;100.00;96144.66;1026763;28;20030;-70
2022/07/16 01:03:11;;;;;;;9.30;3.35;;;;;;;14.17;100.00;96141.50;1022662;28;20056;-72
2022/07/16 01:03:42;;;;;;;6.85;3.05;;;;;;;14.15;100.00;96138.31;1022790;28;20034;-73
2022/07/16 01:04:14;;;;;;;6.55;2.65;;;;;;;14.20;100.00;96140.94;1021735;29;20450;-72
2022/07/16 01:04:44;;;;;;;9.15;2.95;;;;;;;14.25;100.00;96146.19;1030773;28;20010;-74
2022/07/16 01:05:15;;;;;;;6.80;2.80;;;;;;;14.24;100.00;96144.59;1030571;28;20470;-71
2022/07/16 01:05:46;;;;;;;7.32;2.55;;;;;;;14.25;100.00;96148.84;1030530;28;20042;-72
2022/07/16 01:06:16;;;;;;;10.38;2.90;;;;;;;14.21;100.00;96137.22;1031369;28;20044;-74
2022/07/16 01:06:47;;;;;;;9.88;3.10;;;;;;;14.24;100.00;96138.53;1030843;28;20707;-72
2022/07/16 01:07:18;;;;;;;4.68;2.70;;;;;;;14.27;100.00;96149.34;1023025;28;20062;-73
2022/07/16 01:07:48;;;;;;;3.55;2.50;;;;;;;14.28;100.00;96147.47;1018871;29;20036;-72
2022/07/16 01:08:18;;;;;;;11.60;3.08;;;;;;;14.28;100.00;96145.63;1022949;29;20035;-72
2022/07/16 01:08:49;;;;;;;7.97;2.85;;;;;;;14.28;100.00;96142.19;1027126;28;20023;-72
2022/07/16 01:09:20;;;;;;;5.80;2.88;;;;;;;14.27;100.00;96146.69;1026722;28;20928;-73
2022/07/16 01:09:50;;;;;;;8.43;2.55;;;;;;;14.27;100.00;96146.69;1030793;28;20109;-74
2022/07/16 01:10:21;;;;;;;4.75;2.60;;;;;;;14.22;100.00;96144.09;1023111;28;20166;-74
2022/07/16 01:10:51;;;;;;;6.25;2.60;;;;;;;14.27;100.00;96151.19;1026824;28;20019;-70
2022/07/16 01:11:22;;;;;;;8.60;2.90;;;;;;;14.25;100.00;96146.19;1026321;28;20027;-73
2022/07/16 01:11:53;;;;;;;6.15;2.40;;;;;;;14.24;100.00;96149.88;1026785;28;20031;-73
2022/07/16 01:12:23;;;;;;;5.78;3.03;;;;;;;14.22;100.00;96154.66;1034571;28;20024;-74
2022/07/16 01:12:53;;;;;;;4.63;2.72;;;;;;;14.21;100.00;96147.78;1028200;28;20078;-72
2022/07/16 01:13:27;;;;;;;10.00;2.83;;;;;;;14.22;100.00;96153.84;1034823;28;20413;-73
2022/07/16 01:13:57;;;;;;;6.07;3.28;;;;;;;14.13;100.00;96135.19;1027159;28;20025;-76
2022/07/16 01:14:28;;;;;;;5.88;2.53;;;;;;;14.20;100.00;96146.22;1026968;28;20060;-73
2022/07/16 01:14:58;;;;;;;7.85;2.97;;;;;;;14.19;100.00;96147.28;1026599;28;20486;-72
2022/07/16 01:15:29;;;;;;;5.22;2.55;;;;;;;14.21;100.00;96152.28;1027678;28;20081;-74
2022/07/16 01:15:59;;;;;;;8.93;2.78;;;;;;;14.15;100.00;96143.59;1031022;28;20022;-73
2022/07/16 01:16:30;;;;;;;3.63;2.33;;;;;;;14.19;100.00;96146.50;1038797;28;20508;-72
2022/07/16 01:17:00;;;;;;;5.57;3.28;;;;;;;14.18;100.00;96148.34;1036799;28;20029;-72
2022/07/16 01:17:31;;;;;;;5.85;3.00;;;;;;;14.11;100.00;96147.88;1034637;28;20420;-72
2022/07/16 01:18:01;;;;;;;5.72;2.58;;;;;;;14.16;100.00;96145.19;1034717;28;20130;-72
2022/07/16 01:18:32;;;;;;;5.70;2.78;;;;;;;14.13;100.00;96143.09;1039323;28;20064;-72
2022/07/16 01:19:02;;;;;;;9.82;2.92;;;;;;;14.15;100.00;96149.69;1034793;28;20029;-74
2022/07/16 01:19:33;;;;;;;3.85;2.50;;;;;;;14.17;100.00;96146.78;1035139;28;20462;-72
2022/07/16 01:20:05;;;;;;;3.63;2.65;;;;;;;14.15;100.00;96149.69;1038709;28;20037;-72
2022/07/16 01:20:36;;;;;;;4.25;2.60;;;;;;;14.10;100.00;96147.06;1035195;28;20532;-73
2022/07/16 01:21:07;;;;;;;7.72;2.88;;;;;;;14.11;100.00;96153.94;1030437;28;20053;-73
2022/07/16 01:21:37;;;;;;;5.25;2.50;;;;;;;14.11;100.00;96155.78;1032904;28;20402;-72
2022/07/16 01:22:09;;;;;;;5.40;2.85;;;;;;;14.09;100.00;96148.16;1026691;28;20066;-73
2022/07/16 01:22:39;;;;;;;5.65;2.60;;;;;;;14.02;100.00;96150.31;1018697;29;20055;-72
2022/07/16 01:23:15;;;;;;;5.63;2.90;;;;;;;14.05;100.00;96151.59;1015974;29;20364;-73
2022/07/16 01:23:49;;;;;;;3.78;2.40;;;;;;;14.03;100.00;96149.25;1023128;29;20022;-72
2022/07/16 01:24:19;;;;;;;9.15;2.60;;;;;;;14.02;100.00;96149.53;1026299;28;20037;-72
2022/07/16 01:24:53;;;;;;;8.38;2.70;;;;;;;13.82;100.00;96118.78;1034578;28;20473;-73
2022/07/16 01:25:23;;;;;;;4.57;2.33;;;;;;;14.00;100.00;96152.44;1034996;28;20117;-73
2022/07/16 01:25:53;;;;;;;6.72;2.60;;;;;;;13.99;100.00;96156.13;1022697;29;20034;-72
2022/07/16 01:26:24;;;;;;;7.82;2.95;;;;;;;13.98;100.00;96153.75;1023137;29;20039;-72
2022/07/16 01:26:54;;;;;;;4.57;2.58;;;;;;;13.91;100.00;96149.56;1022680;29;20058;-72
2022/07/16 01:27:25;;;;;;;7.53;2.55;;;;;;;13.96;100.00;96153.25;1022852;28;20040;-72
2022/07/16 01:27:55;;;;;;;5.78;3.00;;;;;;;13.97;100.00;96152.19;1023111;28;20479;-72
2022/07/16 01:28:26;;;;;;;5.40;2.53;;;;;;;13.96;100.00;96145.34;1026442;28;20030;-73
2022/07/16 01:28:56;;;;;;;5.40;2.30;;;;;;;13.93;100.00;96153.81;1022938;28;20023;-72
2022/07/16 01:29:27;;;;;;;6.05;3.03;;;;;;;13.93;100.00;96151.16;1031120;28;20022;-72
2022/07/16 01:29:57;;;;;;;11.27;3.13;;;;;;;13.88;100.00;96138.78;1034674;28;20073;-72
2022/07/16 01:30:28;;;;;;;7.50;2.78;;;;;;;13.93;100.00;96151.16;1030970;28;20445;-73
2022/07/16 01:30:58;;;;;;;4.25;2.72;;;;;;;13.93;100.00;96143.25;1034500;28;20026;-69
2022/07/16 01:31:29;;;;;;;4.25;2.72;;;;;;;13.91;100.00;96151.41;1029845;28;20066;-73
2022/07/16 01:31:59;;;;;;;6.45;3.10;;;;;;;13.85;100.00;96134.06;1032859;28;20058;-73
2022/07/16 01:32:29;;;;;;;4.15;2.53;;;;;;;13.89;100.00;96141.16;1034350;28;20104;-72
2022/07/16 01:33:00;;;;;;;9.98;2.90;;;;;;;13.88;100.00;96144.84;1030771;28;20418;-74
2022/07/16 01:33:32;;;;;;;6.55;3.00;;;;;;;13.82;100.00;96132.75;1026749;28;20018;-73
2022/07/16 01:34:54;;;;;;;7.95;2.72;;;;;;;13.82;100.00;96143.31;1033989;28;20017;-74
2022/07/16 01:35:25;;;;;;;5.80;2.35;;;;;;;13.87;100.00;96145.13;1032928;28;20420;-74
2022/07/16 01:35:57;;;;;;;5.68;2.97;;;;;;;13.84;100.00;96140.38;1034120;28;20022;-73
2022/07/16 01:36:27;;;;;;;7.13;3.08;;;;;;;13.86;100.00;96146.97;1032513;28;20018;-74
2022/07/16 01:37:00;;;;;;;12.10;3.67;;;;;;;13.81;100.00;96141.72;1034957;28;20058;-72
2022/07/16 01:37:30;;;;;;;4.70;2.67;;;;;;;13.78;100.00;96144.09;1035045;28;20024;-72
2022/07/16 01:38:01;;;;;;;4.85;2.83;;;;;;;13.83;100.00;96150.16;1027524;28;20438;-73
2022/07/16 01:38:32;;;;;;;8.65;3.10;;;;;;;13.82;100.00;96145.16;1026311;28;20023;-72
2022/07/16 01:39:02;;;;;;;5.75;2.88;;;;;;;13.81;100.00;96149.63;1025417;28;20023;-72
2022/07/16 01:39:34;;;;;;;6.95;2.85;;;;;;;13.81;100.00;96148.84;1026773;28;20085;-74
2022/07/16 01:40:07;;;;;;;3.95;2.63;;;;;;;13.83;100.00;96144.09;1032151;28;20030;-73
2022/07/16 01:40:38;;;;;;;4.75;2.80;;;;;;;13.81;100.00;96146.97;1038498;28;20064;-72
2022/07/16 01:41:09;;;;;;;4.93;2.92;;;;;;;13.80;100.00;96142.00;1038926;28;20083;-72
2022/07/16 01:41:40;;;;;;;7.50;3.00;;;;;;;13.79;100.00;96151.75;1035393;28;20034;-72
2022/07/16 01:42:11;;;;;;;8.60;3.33;;;;;;;13.79;100.00;96150.97;1030620;28;20501;-74
2022/07/16 01:42:43;;;;;;;10.18;3.20;;;;;;;13.78;100.00;96150.19;1030874;28;20033;-73
2022/07/16 01:43:19;;;;;;;5.18;2.33;;;;;;;13.77;100.00;96150.44;1027720;28;20027;-72
2022/07/16 01:43:49;;;;;;;6.68;3.03;;;;;;;13.76;100.00;96147.03;1028441;28;20427;-72
2022/07/16 01:44:21;;;;;;;5.60;2.75;;;;;;;13.76;100.00;96146.25;1030881;28;20042;-73
2022/07/16 01:44:52;;;;;;;6.45;2.63;;;;;;;13.76;100.00;96147.03;1027449;28;20553;-72
2022/07/16 01:45:23;;;;;;;6.72;2.58;;;;;;;13.75;100.00;96150.75;1033000;28;20187;-73
2022/07/16 01:45:53;;;;;;;6.60;2.80;;;;;;;13.75;100.00;96145.47;1038955;28;20040;-72
2022/07/16 01:46:24;;;;;;;4.90;2.50;;;;;;;13.75;100.00;96145.47;1035247;28;20037;-72
2022/07/16 01:46:55;;;;;;;5.03;2.80;;;;;;;13.75;100.00;96144.66;1038471;28;20103;-72
2022/07/16 01:47:25;;;;;;;7.78;2.75;;;;;;;13.75;100.00;96150.75;1030653;28;20598;-75
2022/07/16 01:47:56;;;;;;;5.75;2.88;;;;;;;13.74;100.00;96138.59;1026609;28;20085;-72
2022/07/16 01:48:27;;;;;;;5.43;2.70;;;;;;;13.72;100.00;96140.72;1022965;28;20035;-73
2022/07/16 01:48:57;;;;;;;8.25;2.92;;;;;;;13.73;100.00;96149.44;1026283;28;20113;-73
2022/07/16 01:49:35;;;;;;;4.63;2.63;;;;;;;13.65;100.00;96137.59;1026798;28;20038;-72
2022/07/16 01:50:05;;;;;;;4.10;3.00;;;;;;;13.68;100.00;96151.03;1032708;28;20042;-75
2022/07/16 01:50:36;;;;;;;6.13;2.95;;;;;;;13.66;100.00;96147.88;1040809;28;20022;-70
2022/07/16 01:51:06;;;;;;;4.65;2.47;;;;;;;13.70;100.00;96157.88;1034244;28;20048;-70
2022/07/16 01:51:37;;;;;;;8.60;2.83;;;;;;;13.71;100.00;96154.16;1026500;28;20323;-72
2022/07/16 01:52:17;;;;;;;3.72;2.40;;;;;;;13.68;100.00;96150.22;1024537;28;20035;-72
2022/07/16 01:52:47;;;;;;;8.05;3.20;;;;;;;13.70;100.00;96153.38;1035969;28;20026;-74
2022/07/16 01:53:18;;;;;;;5.05;2.20;;;;;;;13.72;100.00;96155.78;1038616;28;20128;-74
2022/07/16 01:53:48;;;;;;;7.10;2.55;;;;;;;13.71;100.00;96154.97;1031966;28;20018;-72
2022/07/16 01:54:19;;;;;;;6.03;2.72;;;;;;;13.71;100.00;96152.31;1026911;28;20038;-72
2022/07/16 01:54:51;;;;;;;7.47;2.70;;;;;;;13.67;100.00;96140.75;1030651;28;20026;-74
2022/07/16 01:55:22;;;;;;;4.53;2.80;;;;;;;13.72;100.00;96151.28;1027153;28;20187;-71
2022/07/16 01:55:52;;;;;;;6.65;2.92;;;;;;;13.67;100.00;96140.75;1031278;28;20061;-72
2022/07/16 01:56:23;;;;;;;3.22;2.53;;;;;;;13.73;100.00;96150.22;1027531;28;20046;-73
2022/07/16 01:56:54;;;;;;;4.03;2.67;;;;;;;13.72;100.00;96145.22;1026906;28;20428;-72
2022/07/16 01:57:24;;;;;;;4.60;2.80;;;;;;;13.71;100.00;96143.63;1024940;28;20019;-75
2022/07/16 01:57:55;;;;;;;7.25;2.80;;;;;;;13.73;100.00;96152.06;1023903;28;20137;-71
2022/07/16 01:58:25;;;;;;;7.93;2.95;;;;;;;13.75;100.00;96142.00;1029779;28;20480;-71
2022/07/16 01:58:56;;;;;;;7.07;2.70;;;;;;;13.78;100.00;96144.09;1028110;28;20495;-73
2022/07/16 01:59:26;;;;;;;8.95;2.95;;;;;;;13.71;100.00;96139.13;1034572;28;20108;-71
2022/07/16 01:59:57;;;;;;;4.15;2.85;;;;;;;13.80;100.00;96148.06;1032344;28;20296;-72
2022/07/16 02:00:27;;;;;;;5.20;3.35;;;;;;;13.80;100.00;96148.06;1030673;28;20545;-71
2022/07/16 02:00:57;;;;;;;5.03;2.75;;;;;;;13.82;100.00;96145.16;1034634;28;20026;-71
2022/07/16 02:01:28;;;;;;;7.72;2.95;;;;;;;13.84;100.00;96149.09;1033822;28;20477;-72
2022/07/16 02:01:58;;;;;;;7.43;2.58;;;;;;;13.83;100.00;96146.72;1030754;28;20028;-73
2022/07/16 02:02:29;;;;;;;7.82;2.72;;;;;;;13.87;100.00;96150.41;1027922;28;20027;-72
2022/07/16 02:02:59;;;;;;;4.70;2.50;;;;;;;13.86;100.00;96146.19;1026555;28;20450;-73
2022/07/16 02:03:30;;;;;;;4.15;2.97;;;;;;;13.85;100.00;96145.41;1030650;28;20026;-71
2022/07/16 02:04:00;;;;;;;7.63;2.88;;;;;;;13.88;100.00;96149.31;1030510;28;20026;-72
2022/07/16 02:04:31;;;;;;;4.28;2.83;;;;;;;13.87;100.00;96145.13;1034590;28;20640;-72
2022/07/16 02:05:02;;;;;;;6.38;2.67;;;;;;;13.87;100.00;96142.47;1030516;28;20040;-73
2022/07/16 02:05:32;;;;;;;8.07;2.97;;;;;;;13.80;100.00;96132.22;1022572;28;20109;-74
2022/07/16 02:06:03;;;;;;;5.20;2.97;;;;;;;13.84;100.00;96135.91;1022478;29;20058;-71
2022/07/16 02:06:33;;;;;;;5.05;3.33;;;;;;;13.87;100.00;96148.53;1022646;28;20042;-72
2022/07/16 02:07:04;;;;;;;4.70;2.58;;;;;;;13.86;100.00;96144.34;1022634;28;20167;-72
2022/07/16 02:07:34;;;;;;;7.05;3.03;;;;;;;13.84;100.00;96143.81;1021298;28;20119;-73
2022/07/16 02:08:05;;;;;;;6.68;3.00;;;;;;;13.80;100.00;96134.09;1026567;28;20034;-72
2022/07/16 02:08:35;;;;;;;6.80;3.38;;;;;;;13.84;100.00;96145.66;1018725;29;20110;-72
2022/07/16 02:09:06;;;;;;;5.80;2.67;;;;;;;13.83;100.00;96147.50;1021193;28;20037;-73
2022/07/16 02:09:37;;;;;;;4.97;2.50;;;;;;;13.83;100.00;96144.88;1029019;28;20029;-71
2022/07/16 02:10:07;;;;;;;6.05;3.28;;;;;;;13.82;100.00;96145.16;1022475;28;20034;-71
2022/07/16 02:10:38;;;;;;;8.90;2.90;;;;;;;13.78;100.00;96144.09;1030497;28;20029;-73
2022/07/16 02:11:09;;;;;;;6.00;3.17;;;;;;;13.78;100.00;96141.47;1022375;28;20031;-72
2022/07/16 02:11:39;;;;;;;7.70;3.20;;;;;;;13.78;100.00;96149.38;1026573;28;20034;-72
2022/07/16 02:12:10;;;;;;;6.07;2.83;;;;;;;13.76;100.00;96141.75;1026629;28;20488;-72
2022/07/16 02:12:40;;;;;;;5.95;2.83;;;;;;;13.75;100.00;96148.09;1030462;28;20030;-74
2022/07/16 02:13:11;;;;;;;9.55;3.40;;;;;;;13.74;100.00;96143.88;1034540;28;20025;-72
2022/07/16 02:13:42;;;;;;;7.72;2.83;;;;;;;13.71;100.00;96144.41;1034624;28;20276;-72
2022/07/16 02:14:12;;;;;;;9.48;2.72;;;;;;;13.67;100.00;96146.03;1026685;28;20629;-72
2022/07/16 02:14:43;;;;;;;9.48;3.20;;;;;;;13.66;100.00;96145.22;1026390;28;20031;-73
2022/07/16 02:15:13;;;;;;;5.43;2.97;;;;;;;13.66;100.00;96147.09;1026677;28;20728;-72
2022/07/16 02:15:44;;;;;;;7.07;3.33;;;;;;;13.55;100.00;96135.81;1031273;28;20455;-73
2022/07/16 02:16:14;;;;;;;7.55;3.30;;;;;;;13.60;100.00;96148.16;1042455;28;20518;-75
2022/07/16 02:16:45;;;;;;;6.80;3.50;;;;;;;13.52;100.00;96144.25;1042793;28;20325;-72
2022/07/16 02:17:15;;;;;;;6.38;2.80;;;;;;;13.55;100.00;96146.34;1038902;28;20029;-72
2022/07/16 02:17:45;;;;;;;6.72;2.97;;;;;;;13.51;100.00;96144.50;1034683;28;20033;-72
2022/07/16 02:18:16;;;;;;;6.43;2.85;;;;;;;13.51;100.00;96144.50;1026323;28;20065;-74
2022/07/16 02:18:46;;;;;;;6.07;2.72;;;;;;;13.46;100.00;96145.34;1026561;28;20030;-73
2022/07/16 02:19:17;;;;;;;6.82;3.22;;;;;;;13.46;100.00;96152.47;1022588;28;20670;-72
2022/07/16 02:19:47;;;;;;;4.47;2.80;;;;;;;13.40;100.00;96144.56;1021434;28;20090;-72
2022/07/16 02:20:18;;;;;;;6.18;3.60;;;;;;;13.39;100.00;96152.75;1034423;28;20077;-72
2022/07/16 02:20:48;;;;;;;7.13;3.20;;;;;;;13.35;100.00;96155.13;1034683;28;20033;-72
2022/07/16 02:21:19;;;;;;;5.78;3.17;;;;;;;13.33;100.00;96149.34;1026090;28;20823;-72
2022/07/16 02:21:49;;;;;;;4.68;3.00;;;;;;;13.34;100.00;96156.16;1030423;28;20183;-72
2022/07/16 02:22:19;;;;;;;9.13;3.10;;;;;;;13.33;100.00;96153.81;1030542;28;20018;-72
2022/07/16 02:22:52;;;;;;;6.35;2.85;;;;;;;13.28;100.00;96152.00;1026684;28;20412;-74
2022/07/16 02:23:22;;;;;;;4.90;2.92;;;;;;;13.27;100.00;96154.88;1030673;28;20023;-72
2022/07/16 02:23:53;;;;;;;8.25;2.80;;;;;;;13.26;100.00;96159.38;1031078;28;20018;-72
2022/07/16 02:24:23;;;;;;;5.43;3.13;;;;;;;13.25;100.00;96157.03;1030798;28;20023;-71
2022/07/16 02:24:54;;;;;;;10.15;3.20;;;;;;;13.22;100.00;96158.31;1030476;28;20494;-73
2022/07/16 02:25:27;;;;;;;6.97;3.30;;;;;;;13.24;100.00;96156.22;1029198;28;20466;-72
2022/07/16 02:25:57;;;;;;;5.95;3.10;;;;;;;13.23;100.00;96159.09;1034968;28;20022;-71
2022/07/16 02:26:28;;;;;;;8.45;3.03;;;;;;;13.23;100.00;96159.88;1034730;28;20017;-72
2022/07/16 02:26:59;;;;;;;7.43;2.95;;;;;;;13.17;100.00;96150.41;1039092;28;20045;-72